createdAt,value
2019-03-28T00:03:53.447Z,56.92
2019-03-28T00:09:00.915Z,53.95
2019-03-28T00:14:09.597Z,55.50
2019-03-28T00:19:16.695Z,51.75
2019-03-28T00:24:25.525Z,51.23
2019-03-28T00:29:32.862Z,48.02
2019-03-28T00:34:40.231Z,48.75
2019-03-28T00:39:47.388Z,46.30
2019-03-28T00:44:54.427Z,40.20
2019-03-28T00:50:01.705Z,35.83
2019-03-28T00:55:09.358Z,38.73
2019-03-28T01:00:16.801Z,37.40
2019-03-28T01:05:24.191Z,38.25
2019-03-28T01:10:32.679Z,36.75
2019-03-28T01:15:57.662Z,35.17
2019-03-28T01:21:06.554Z,36.42
2019-03-28T01:26:15.823Z,34.03
2019-03-28T01:31:25.483Z,31.87
2019-03-28T01:36:53.674Z,32.25
2019-03-28T01:42:02.275Z,27.58
2019-03-28T01:47:10.970Z,28.15
2019-03-28T01:52:18.992Z,28.55
2019-03-28T01:57:26.586Z,26.33
2019-03-28T02:02:34.332Z,26.75
2019-03-28T02:07:42.188Z,27.77
2019-03-28T02:12:50.106Z,27.58
2019-03-28T02:17:58.115Z,28.83
2019-03-28T02:23:07.220Z,23.77
2019-03-28T02:28:17.283Z,23.23
2019-03-28T02:33:29.227Z,23.02
2019-03-28T02:38:37.385Z,22.65
2019-03-28T02:44:05.195Z,23.40
2019-03-28T02:49:14.222Z,27.17
2019-03-28T02:54:22.378Z,24.77
2019-03-28T02:59:31.463Z,22.15
2019-03-28T03:04:42.166Z,21.85
2019-03-28T03:09:51.791Z,22.62
2019-03-28T03:15:00.623Z,20.92
2019-03-28T03:20:10.162Z,20.70
2019-03-28T03:25:18.148Z,22.05
2019-03-28T03:30:25.821Z,22.48
2019-03-28T03:35:34.727Z,21.00
2019-03-28T03:40:42.645Z,20.75
2019-03-28T03:45:50.459Z,20.72
2019-03-28T03:50:58.252Z,20.32
2019-03-28T03:56:06.349Z,21.75
2019-03-28T04:01:14.388Z,26.48
2019-03-28T04:06:22.910Z,20.88
2019-03-28T04:11:33.890Z,22.40
2019-03-28T04:16:41.935Z,22.05
2019-03-28T04:21:49.849Z,22.67
2019-03-28T04:26:57.564Z,23.98
2019-03-28T04:32:05.069Z,23.32
2019-03-28T04:37:13.445Z,23.75
2019-03-28T04:42:21.332Z,22.82
2019-03-28T04:47:29.141Z,22.37
2019-03-28T04:52:39.333Z,22.52
2019-03-28T04:57:47.346Z,23.12
2019-03-28T05:02:55.473Z,24.10
2019-03-28T05:08:03.155Z,22.93
2019-03-28T05:13:10.764Z,22.37
2019-03-28T05:18:19.584Z,22.48
2019-03-28T05:23:27.388Z,24.02
2019-03-28T05:28:35.235Z,22.27
2019-03-28T05:33:42.889Z,23.00
2019-03-28T05:38:52.252Z,23.30
2019-03-28T05:44:00.104Z,22.75
2019-03-28T05:49:08.362Z,21.52
2019-03-28T05:54:16.992Z,21.87
2019-03-28T05:59:26.005Z,21.15
2019-03-28T06:04:34.348Z,20.97
2019-03-28T06:09:42.725Z,22.13
2019-03-28T06:14:50.405Z,22.35
2019-03-28T06:19:58.579Z,20.37
2019-03-28T06:25:08.104Z,20.70
2019-03-28T06:30:16.532Z,21.75
2019-03-28T06:35:24.355Z,20.20
2019-03-28T06:40:32.443Z,20.95
2019-03-28T06:45:41.295Z,22.45
2019-03-28T06:50:49.988Z,20.68
2019-03-28T06:55:58.409Z,22.55
2019-03-28T07:01:06.360Z,21.12
2019-03-28T07:06:14.633Z,20.65
2019-03-28T07:11:23.460Z,20.97
2019-03-28T07:16:31.178Z,21.80
2019-03-28T07:21:40.254Z,20.70
2019-03-28T07:26:48.199Z,21.85
2019-03-28T07:31:56.204Z,21.62
2019-03-28T07:37:03.746Z,21.30
2019-03-28T07:42:12.900Z,21.68
2019-03-28T07:47:21.989Z,21.27
2019-03-28T07:52:31.046Z,27.87
2019-03-28T07:58:16.928Z,39.65
2019-03-28T08:03:25.782Z,30.02
2019-03-28T08:08:38.965Z,24.20
2019-03-28T08:13:44.246Z,25.12
2019-03-28T08:18:52.459Z,25.88
2019-03-28T08:24:00.593Z,24.70
2019-03-28T08:29:09.003Z,23.25
2019-03-28T08:34:18.597Z,24.40
2019-03-28T08:39:27.239Z,28.53
2019-03-28T08:44:36.265Z,30.60
2019-03-28T08:49:44.571Z,24.80
2019-03-28T08:54:52.279Z,24.35
2019-03-28T09:00:01.675Z,21.65
2019-03-28T09:05:11.229Z,20.05
2019-03-28T09:10:21.300Z,13.48
2019-03-28T09:15:43.174Z,10.23
2019-03-28T09:20:40.330Z,8.68
2019-03-28T09:25:47.951Z,13.13
2019-03-28T09:30:56.394Z,16.07
2019-03-28T09:36:04.255Z,18.60
2019-03-28T09:41:16.515Z,15.90
2019-03-28T09:46:26.787Z,12.73
2019-03-28T09:51:35.308Z,13.50
2019-03-28T09:56:44.632Z,13.70
2019-03-28T10:02:13.740Z,12.58
2019-03-28T10:07:22.864Z,12.80
2019-03-28T10:12:30.536Z,11.93
2019-03-28T10:17:42.287Z,14.98
2019-03-28T10:22:48.518Z,16.15
2019-03-28T10:27:57.099Z,15.13
2019-03-28T10:33:06.352Z,13.93
2019-03-28T10:38:15.601Z,16.82
2019-03-28T10:43:24.612Z,15.65
2019-03-28T10:48:32.486Z,18.55
2019-03-28T10:53:40.373Z,23.52
2019-03-28T10:58:48.528Z,26.10
2019-03-28T11:03:58.058Z,21.25
2019-03-28T11:09:06.808Z,21.33
2019-03-28T11:14:14.893Z,19.75
2019-03-28T11:19:22.554Z,20.55
2019-03-28T11:24:30.340Z,19.85
2019-03-28T11:29:40.696Z,16.77
2019-03-28T11:34:48.719Z,18.27
2019-03-28T11:40:25.927Z,17.25
2019-03-28T11:45:33.493Z,15.88
2019-03-28T11:50:41.320Z,17.55
2019-03-28T11:55:50.350Z,16.97
2019-03-28T12:00:59.189Z,19.90
2019-03-28T12:06:07.721Z,21.37
2019-03-28T12:11:15.384Z,19.87
2019-03-28T12:16:23.011Z,16.97
2019-03-28T12:21:30.657Z,15.40
2019-03-28T12:26:39.445Z,13.28
2019-03-28T12:31:46.891Z,12.85
2019-03-28T12:36:55.453Z,12.80
2019-03-28T12:42:03.496Z,13.13
2019-03-28T12:47:13.301Z,12.82
2019-03-28T12:52:20.794Z,12.30
2019-03-28T12:57:30.585Z,13.53
2019-03-28T13:02:38.419Z,14.05
2019-03-28T13:07:48.892Z,14.98
2019-03-28T13:12:56.955Z,14.73
2019-03-28T13:18:04.565Z,15.75
2019-03-28T13:23:12.323Z,15.20
2019-03-28T13:28:21.230Z,13.70
2019-03-28T13:33:30.217Z,14.10
2019-03-28T13:38:38.590Z,14.30
2019-03-28T13:43:46.194Z,14.18
2019-03-28T13:48:54.780Z,14.15
2019-03-28T13:54:03.490Z,15.63
2019-03-28T13:59:11.194Z,14.50
2019-03-28T14:04:19.360Z,15.95
2019-03-28T14:09:27.238Z,16.60
2019-03-28T14:14:35.084Z,16.17
2019-03-28T14:19:43.388Z,18.30
2019-03-28T14:24:52.582Z,18.77
2019-03-28T14:30:20.559Z,18.45
2019-03-28T14:35:29.145Z,20.52
2019-03-28T14:40:37.018Z,20.70
2019-03-28T14:45:44.754Z,23.40
2019-03-28T14:50:59.016Z,24.85
2019-03-28T14:56:06.592Z,24.92
2019-03-28T15:01:15.454Z,23.98
2019-03-28T15:06:24.712Z,23.42
2019-03-28T15:11:34.450Z,24.37
2019-03-28T15:16:42.222Z,26.87
2019-03-28T15:21:50.750Z,27.70
2019-03-28T15:26:58.890Z,26.90
2019-03-28T15:32:07.031Z,29.00
2019-03-28T15:37:14.814Z,29.27
2019-03-28T15:42:23.171Z,31.12
2019-03-28T15:47:31.874Z,31.87
2019-03-28T15:52:40.425Z,30.80
2019-03-28T15:57:49.069Z,31.30
2019-03-28T16:02:57.962Z,32.03
2019-03-28T16:08:05.963Z,31.15
2019-03-28T16:13:17.322Z,31.20
2019-03-28T16:18:25.278Z,31.15
2019-03-28T16:23:33.028Z,32.03
2019-03-28T16:28:41.486Z,31.85
2019-03-28T16:33:49.699Z,34.08
2019-03-28T16:38:59.416Z,36.00
2019-03-28T16:44:07.657Z,36.08
2019-03-28T16:49:16.725Z,34.03
2019-03-28T16:54:24.776Z,36.63
2019-03-28T16:59:32.348Z,38.02
2019-03-28T17:04:41.437Z,38.15
2019-03-28T17:09:49.440Z,43.58
2019-03-28T17:14:57.152Z,45.70
2019-03-28T17:20:05.605Z,49.53
2019-03-28T17:25:13.293Z,42.43
2019-03-28T17:30:21.099Z,41.90
2019-03-28T17:35:29.819Z,40.38
2019-03-28T17:40:38.735Z,45.52
2019-03-28T17:45:47.179Z,46.42
2019-03-28T17:50:55.755Z,45.15
2019-03-28T17:56:03.835Z,44.70
2019-03-28T18:01:12.082Z,41.53
2019-03-28T18:06:20.081Z,42.38
2019-03-28T18:11:28.039Z,38.53
2019-03-28T18:16:37.282Z,41.65
2019-03-28T18:21:45.920Z,43.63
2019-03-28T18:26:54.170Z,45.17
2019-03-28T18:32:02.316Z,41.25
2019-03-28T18:37:10.222Z,40.78
2019-03-28T18:42:17.955Z,39.63
2019-03-28T18:47:25.640Z,38.45
2019-03-28T18:52:33.766Z,34.45
2019-03-28T18:57:42.183Z,30.10
2019-03-28T19:02:50.923Z,29.57
2019-03-28T19:07:58.873Z,30.48
2019-03-28T19:13:07.224Z,31.45
2019-03-28T19:18:15.526Z,30.92
2019-03-28T19:23:24.833Z,31.20
2019-03-28T19:28:33.833Z,31.60
2019-03-28T19:33:41.967Z,29.42
2019-03-28T19:38:49.812Z,28.30
2019-03-28T19:43:57.596Z,29.23
2019-03-28T19:49:05.238Z,31.35
2019-03-28T19:54:12.627Z,29.75
2019-03-28T19:59:20.572Z,30.40
2019-03-28T20:04:28.877Z,32.35
2019-03-28T20:09:36.919Z,30.15
2019-03-28T20:14:45.108Z,32.08
2019-03-28T20:19:53.194Z,32.03
2019-03-28T20:25:01.378Z,32.25
2019-03-28T20:30:10.439Z,31.48
2019-03-28T20:35:18.514Z,31.93
2019-03-28T20:40:26.847Z,30.97
2019-03-28T20:45:35.070Z,30.50
2019-03-28T20:50:42.477Z,33.80
2019-03-28T20:55:53.773Z,31.50
2019-03-28T21:01:02.480Z,31.65
2019-03-28T21:06:15.478Z,32.38
2019-03-28T21:11:20.140Z,32.17
2019-03-28T21:16:28.067Z,31.85
2019-03-28T21:21:36.841Z,30.90
2019-03-28T21:26:45.303Z,32.17
2019-03-28T21:31:53.573Z,32.00
2019-03-28T21:37:01.702Z,32.85
2019-03-28T21:42:09.729Z,35.33
2019-03-28T21:47:17.382Z,35.60
2019-03-28T21:52:26.390Z,37.58
2019-03-28T21:57:35.015Z,37.38
2019-03-28T22:02:43.432Z,36.42
2019-03-28T22:07:52.068Z,37.00
2019-03-28T22:13:01.015Z,39.95
2019-03-28T22:18:11.135Z,41.68
2019-03-28T22:23:19.269Z,40.17
2019-03-28T22:28:27.461Z,40.12
2019-03-28T22:33:36.394Z,41.45
2019-03-28T22:38:45.312Z,44.00
2019-03-28T22:43:53.390Z,47.30
2019-03-28T22:49:30.409Z,48.10
2019-03-28T22:54:39.298Z,43.90
2019-03-28T22:59:47.419Z,47.95
2019-03-28T23:04:55.784Z,49.98
2019-03-28T23:10:03.696Z,48.55
2019-03-28T23:15:12.999Z,51.10
2019-03-28T23:20:23.809Z,49.50
2019-03-28T23:25:32.087Z,46.05
2019-03-28T23:30:40.034Z,43.00
2019-03-28T23:35:48.475Z,40.15
2019-03-28T23:40:57.253Z,41.02
2019-03-28T23:46:04.877Z,41.70
2019-03-28T23:51:14.716Z,43.13
2019-03-28T23:56:23.246Z,42.98
